createdAt,value
2022-10-30T00:00:02.442Z,15.45
2022-10-30T00:02:29.073Z,17.02
2022-10-30T00:04:55.823Z,15.52
2022-10-30T00:07:22.546Z,14.82
2022-10-30T00:09:49.154Z,15.90
2022-10-30T00:12:15.765Z,18.95
2022-10-30T00:14:42.357Z,16.48
2022-10-30T00:17:08.953Z,14.48
2022-10-30T00:19:35.591Z,15.02
2022-10-30T00:24:29.127Z,13.48
2022-10-30T00:26:55.844Z,16.67
2022-10-30T00:29:25.134Z,17.90
2022-10-30T00:31:52.615Z,19.05
2022-10-30T00:34:20.038Z,16.38
2022-10-30T00:36:46.704Z,15.23
2022-10-30T00:39:16.031Z,15.63
2022-10-30T00:41:42.856Z,16.08
2022-10-30T00:44:32.326Z,18.08
2022-10-30T00:47:00.212Z,19.20
2022-10-30T00:49:26.862Z,19.75
2022-10-30T00:51:54.625Z,17.10
2022-10-30T00:54:22.246Z,19.90
2022-10-30T00:56:49.443Z,18.02
2022-10-30T00:59:18.742Z,19.00
2022-10-30T01:01:46.327Z,16.65
2022-10-30T01:04:13.513Z,19.23
2022-10-30T01:06:42.145Z,18.52
2022-10-30T01:09:08.836Z,15.32
2022-10-30T01:11:35.517Z,14.02
2022-10-30T01:14:05.272Z,14.63
2022-10-30T01:16:56.518Z,17.17
2022-10-30T01:22:38.543Z,10.02
2022-10-30T01:25:33.118Z,14.32
2022-10-30T01:28:28.874Z,13.38
2022-10-30T01:31:17.880Z,13.63
2022-10-30T01:33:57.114Z,12.05
2022-10-30T01:36:32.761Z,12.10
2022-10-30T01:39:12.026Z,13.20
2022-10-30T01:41:38.669Z,12.35
2022-10-30T01:44:09.379Z,16.58
2022-10-30T01:46:49.335Z,13.20
2022-10-30T01:49:44.133Z,15.57
2022-10-30T01:55:11.571Z,15.32
2022-10-30T01:57:50.100Z,14.10
2022-10-30T02:00:20.495Z,14.52
2022-10-30T02:02:49.247Z,16.45
2022-10-30T02:05:26.302Z,16.20
2022-10-30T02:07:52.978Z,19.55
2022-10-30T02:10:22.120Z,19.33
2022-10-30T02:12:48.846Z,20.02
2022-10-30T02:15:15.922Z,17.23
2022-10-30T02:17:42.709Z,16.85
2022-10-30T02:20:19.516Z,13.43
2022-10-30T02:22:47.113Z,18.17
2022-10-30T02:25:14.284Z,18.30
2022-10-30T02:27:40.921Z,18.98
2022-10-30T02:30:08.488Z,14.73
2022-10-30T02:32:35.119Z,13.57
2022-10-30T02:35:01.813Z,13.45
2022-10-30T02:37:28.483Z,14.07
2022-10-30T02:39:55.125Z,11.75
2022-10-30T02:42:23.221Z,13.75
2022-10-30T02:44:49.965Z,17.40
2022-10-30T02:47:16.552Z,14.75
2022-10-30T02:49:43.140Z,14.70
2022-10-30T02:52:09.738Z,16.13
2022-10-30T02:54:36.582Z,17.80
2022-10-30T02:57:03.277Z,15.68
2022-10-30T02:59:30.199Z,13.13
2022-10-30T03:01:56.962Z,15.52
2022-10-30T03:04:23.632Z,15.23
2022-10-30T03:06:50.203Z,17.10
2022-10-30T03:09:16.879Z,18.65
2022-10-30T03:11:44.468Z,18.05
2022-10-30T03:14:11.508Z,19.80
2022-10-30T03:16:38.494Z,18.08
2022-10-30T03:19:05.435Z,19.75
2022-10-30T03:21:32.067Z,21.63
2022-10-30T03:23:59.031Z,18.52
2022-10-30T03:26:25.644Z,20.02
2022-10-30T03:28:52.243Z,22.70
2022-10-30T03:31:19.703Z,20.33
2022-10-30T03:33:46.613Z,22.20
2022-10-30T03:36:14.666Z,22.92
2022-10-30T03:38:41.681Z,19.77
2022-10-30T03:41:08.453Z,22.00
2022-10-30T03:43:35.206Z,21.70
2022-10-30T03:46:01.990Z,23.60
2022-10-30T03:48:29.666Z,26.45
2022-10-30T03:50:57.927Z,26.48
2022-10-30T03:53:26.299Z,24.95
2022-10-30T03:55:53.563Z,21.80
2022-10-30T03:58:20.135Z,23.10
2022-10-30T04:00:46.714Z,18.98
2022-10-30T04:03:13.304Z,25.63
2022-10-30T04:05:40.259Z,17.10
2022-10-30T04:08:12.052Z,22.15
2022-10-30T04:10:45.578Z,17.90
2022-10-30T04:13:13.496Z,16.77
2022-10-30T04:15:40.684Z,17.55
2022-10-30T04:18:07.772Z,19.63
2022-10-30T04:20:34.518Z,19.10
2022-10-30T04:23:03.520Z,19.38
2022-10-30T04:25:30.730Z,21.67
2022-10-30T04:27:57.693Z,19.05
2022-10-30T04:30:27.938Z,21.33
2022-10-30T04:32:56.616Z,23.45
2022-10-30T04:35:29.203Z,18.88
2022-10-30T04:38:01.664Z,19.30
2022-10-30T04:40:31.346Z,16.73
2022-10-30T04:42:58.514Z,18.42
2022-10-30T04:45:25.802Z,17.60
2022-10-30T04:47:52.938Z,17.48
2022-10-30T04:50:19.917Z,17.70
2022-10-30T04:52:46.541Z,20.05
2022-10-30T04:55:13.244Z,21.10
2022-10-30T04:57:39.889Z,20.75
2022-10-30T05:00:08.031Z,21.85
2022-10-30T05:02:36.774Z,20.20
2022-10-30T05:05:04.616Z,23.33
2022-10-30T05:07:31.215Z,21.73
2022-10-30T05:09:57.837Z,28.15
2022-10-30T05:12:24.435Z,21.08
2022-10-30T05:14:51.042Z,21.60
2022-10-30T05:17:17.701Z,20.33
2022-10-30T05:19:44.404Z,22.65
2022-10-30T05:22:11.010Z,25.45
2022-10-30T05:24:37.612Z,24.05
2022-10-30T05:27:04.231Z,21.48
2022-10-30T05:29:30.890Z,23.10
2022-10-30T05:31:57.479Z,22.67
2022-10-30T05:34:24.094Z,23.20
2022-10-30T05:36:50.723Z,22.50
2022-10-30T05:39:17.323Z,22.77
2022-10-30T05:41:43.925Z,21.13
2022-10-30T05:44:10.548Z,22.02
2022-10-30T05:46:37.231Z,22.95
2022-10-30T05:49:04.058Z,21.98
2022-10-30T05:51:30.698Z,22.40
2022-10-30T05:53:57.288Z,21.95
2022-10-30T05:56:24.019Z,19.58
2022-10-30T05:58:50.692Z,22.77
2022-10-30T06:01:17.593Z,17.80
2022-10-30T06:03:44.682Z,23.70
2022-10-30T06:06:11.275Z,22.35
2022-10-30T06:08:37.913Z,25.85
2022-10-30T06:11:04.511Z,20.27
2022-10-30T06:13:31.119Z,24.02
2022-10-30T06:15:57.737Z,21.63
2022-10-30T06:18:24.562Z,21.88
2022-10-30T06:20:51.226Z,21.63
2022-10-30T06:23:17.796Z,18.50
2022-10-30T06:25:46.738Z,19.73
2022-10-30T06:28:14.244Z,16.70
2022-10-30T06:30:40.799Z,19.48
2022-10-30T06:33:07.787Z,18.50
2022-10-30T06:35:34.522Z,22.80
2022-10-30T06:38:01.133Z,18.80
2022-10-30T06:40:29.955Z,19.10
2022-10-30T06:42:57.896Z,18.25
2022-10-30T06:45:25.060Z,21.60
2022-10-30T06:47:52.312Z,19.55
2022-10-30T06:50:20.907Z,20.17
2022-10-30T06:52:48.487Z,21.17
2022-10-30T06:55:15.437Z,17.27
2022-10-30T06:57:42.210Z,21.05
2022-10-30T07:00:09.742Z,19.08
2022-10-30T07:02:36.648Z,22.35
2022-10-30T07:05:03.434Z,20.70
2022-10-30T07:07:30.350Z,17.55
2022-10-30T07:09:57.055Z,20.83
2022-10-30T07:12:23.779Z,17.95
2022-10-30T07:14:50.405Z,17.90
2022-10-30T07:17:17.113Z,16.45
2022-10-30T07:19:43.902Z,16.92
2022-10-30T07:22:10.634Z,16.83
2022-10-30T07:24:37.416Z,19.38
2022-10-30T07:27:04.149Z,22.88
2022-10-30T07:29:30.787Z,19.50
2022-10-30T07:32:02.993Z,21.98
2022-10-30T07:34:30.467Z,17.13
2022-10-30T07:36:57.199Z,24.70
2022-10-30T07:39:23.900Z,18.92
2022-10-30T07:41:50.788Z,17.40
2022-10-30T07:44:17.909Z,16.73
2022-10-30T07:46:44.718Z,17.45
2022-10-30T07:49:11.620Z,17.88
2022-10-30T07:51:38.355Z,18.05
2022-10-30T07:54:05.162Z,21.05
2022-10-30T07:56:32.008Z,20.50
2022-10-30T07:58:58.686Z,24.42
2022-10-30T08:01:25.625Z,20.17
2022-10-30T08:03:52.515Z,21.95
2022-10-30T08:06:22.927Z,14.02
2022-10-30T08:08:53.034Z,16.98
2022-10-30T08:11:19.816Z,17.45
2022-10-30T08:13:46.819Z,15.02
2022-10-30T08:16:13.640Z,17.17
2022-10-30T08:18:42.700Z,16.20
2022-10-30T08:21:09.959Z,16.70
2022-10-30T08:23:39.393Z,16.48
2022-10-30T08:26:06.472Z,13.93
2022-10-30T08:28:33.417Z,26.98
2022-10-30T08:31:00.829Z,24.00
2022-10-30T08:33:27.633Z,22.33
2022-10-30T08:35:56.831Z,22.98
2022-10-30T08:38:23.935Z,22.83
2022-10-30T08:40:50.761Z,19.02
2022-10-30T08:43:18.052Z,84.40
2022-10-30T08:45:45.117Z,54.17
2022-10-30T08:48:14.270Z,23.77
2022-10-30T08:50:44.477Z,19.67
2022-10-30T08:53:13.192Z,23.30
2022-10-30T08:55:40.601Z,24.58
2022-10-30T08:58:09.240Z,22.08
2022-10-30T09:00:35.996Z,21.65
2022-10-30T09:03:03.449Z,21.88
2022-10-30T09:05:30.765Z,20.23
2022-10-30T09:07:59.267Z,20.30
2022-10-30T09:10:27.200Z,18.45
2022-10-30T09:12:56.118Z,18.17
2022-10-30T09:15:23.227Z,18.30
2022-10-30T09:17:59.309Z,16.90
2022-10-30T09:20:27.857Z,16.20
2022-10-30T09:22:55.160Z,18.85
2022-10-30T09:25:22.273Z,19.02
2022-10-30T09:27:49.265Z,17.58
2022-10-30T09:30:16.469Z,19.45
2022-10-30T09:32:43.414Z,20.52
2022-10-30T09:35:10.602Z,20.05
2022-10-30T09:37:38.407Z,21.90
2022-10-30T09:40:06.335Z,19.05
2022-10-30T09:42:47.334Z,19.10
2022-10-30T09:45:46.360Z,19.10
2022-10-30T09:48:41.268Z,16.25
2022-10-30T09:51:39.198Z,16.38
2022-10-30T09:54:05.993Z,14.52
2022-10-30T09:56:46.113Z,16.02
2022-10-30T09:59:32.716Z,13.43
2022-10-30T10:02:32.805Z,15.13
2022-10-30T10:05:07.519Z,13.77
2022-10-30T10:07:41.164Z,10.73
2022-10-30T10:10:18.484Z,13.93
2022-10-30T10:12:47.870Z,14.88
2022-10-30T10:15:22.860Z,14.50
2022-10-30T10:17:49.694Z,15.38
2022-10-30T10:20:43.992Z,11.27
2022-10-30T10:23:28.710Z,13.32
2022-10-30T10:25:58.834Z,15.25
2022-10-30T10:28:48.619Z,15.23
2022-10-30T10:31:44.573Z,10.77
2022-10-30T10:34:18.071Z,13.90
2022-10-30T10:37:03.661Z,13.27
2022-10-30T10:39:41.465Z,14.48
2022-10-30T10:42:35.697Z,12.88
2022-10-30T10:45:32.930Z,12.15
2022-10-30T10:48:25.095Z,12.88
2022-10-30T10:51:02.715Z,15.40
2022-10-30T10:54:09.951Z,10.75
2022-10-30T10:56:40.452Z,13.15
2022-10-30T10:59:15.150Z,11.88
2022-10-30T11:01:46.255Z,12.10
2022-10-30T11:04:24.787Z,14.52
2022-10-30T11:06:53.198Z,13.50
2022-10-30T11:09:24.614Z,12.57
2022-10-30T11:11:52.996Z,13.30
2022-10-30T11:14:22.864Z,13.27
2022-10-30T11:17:07.330Z,13.50
2022-10-30T11:19:35.834Z,10.93
2022-10-30T11:22:06.844Z,12.32
2022-10-30T11:24:34.977Z,13.55
2022-10-30T11:27:30.864Z,15.10
2022-10-30T11:29:59.301Z,15.57
2022-10-30T11:32:34.940Z,12.48
2022-10-30T11:35:07.902Z,16.08
2022-10-30T11:37:39.599Z,11.90
2022-10-30T11:40:08.361Z,13.60
2022-10-30T11:42:35.632Z,13.13
2022-10-30T11:45:03.068Z,16.98
2022-10-30T11:50:05.159Z,11.07
2022-10-30T11:52:37.116Z,14.50
2022-10-30T11:55:24.194Z,14.05
2022-10-30T11:57:53.294Z,11.25
2022-10-30T12:00:22.208Z,14.45
2022-10-30T12:02:51.636Z,13.27
2022-10-30T12:05:35.526Z,13.15
2022-10-30T12:08:08.657Z,12.38
2022-10-30T12:10:47.780Z,16.83
2022-10-30T12:13:16.804Z,16.48
2022-10-30T12:15:45.782Z,10.52
2022-10-30T12:21:00.036Z,15.07
2022-10-30T12:23:28.523Z,11.35
2022-10-30T12:25:58.320Z,13.07
2022-10-30T12:28:30.787Z,11.55
2022-10-30T12:31:08.882Z,12.32
2022-10-30T12:33:39.488Z,11.85
2022-10-30T12:36:28.175Z,12.77
2022-10-30T12:38:59.966Z,11.15
2022-10-30T12:41:47.086Z,9.60
2022-10-30T12:44:22.418Z,15.30
2022-10-30T12:47:02.495Z,12.95
2022-10-30T12:49:38.630Z,12.15
2022-10-30T12:52:40.544Z,12.77
2022-10-30T12:55:21.562Z,15.25
2022-10-30T12:58:11.654Z,11.25
2022-10-30T13:00:50.682Z,11.95
2022-10-30T13:03:22.974Z,10.68
2022-10-30T13:05:56.102Z,13.68
2022-10-30T13:08:31.019Z,11.68
2022-10-30T13:11:10.010Z,14.23
2022-10-30T13:13:39.823Z,13.30
2022-10-30T13:16:17.728Z,10.35
2022-10-30T13:18:44.537Z,10.35
2022-10-30T13:21:11.248Z,11.38
2022-10-30T13:24:01.660Z,15.50
2022-10-30T13:26:35.803Z,10.00
2022-10-30T13:29:21.581Z,12.98
2022-10-30T13:32:01.489Z,9.52
2022-10-30T13:34:37.007Z,9.40
2022-10-30T13:37:25.752Z,13.98
2022-10-30T13:40:22.054Z,10.32
2022-10-30T13:43:02.646Z,10.50
2022-10-30T13:45:44.167Z,10.10
2022-10-30T13:48:34.588Z,12.63
2022-10-30T13:51:18.492Z,10.90
2022-10-30T13:53:46.883Z,19.65
2022-10-30T13:56:17.407Z,16.75
2022-10-30T13:58:49.206Z,16.45
2022-10-30T14:01:32.179Z,14.32
2022-10-30T14:04:21.259Z,10.45
2022-10-30T14:06:52.440Z,10.85
2022-10-30T14:09:43.510Z,10.27
2022-10-30T14:12:48.094Z,10.60
2022-10-30T14:18:13.865Z,11.25
2022-10-30T14:20:50.731Z,12.13
2022-10-30T14:23:23.504Z,12.32
2022-10-30T14:26:02.421Z,9.50
2022-10-30T14:28:38.531Z,12.73
2022-10-30T14:31:13.820Z,10.95
2022-10-30T14:33:40.752Z,15.30
2022-10-30T14:36:33.453Z,10.45
2022-10-30T14:39:09.279Z,13.75
2022-10-30T14:41:54.698Z,11.10
2022-10-30T14:44:31.384Z,9.85
2022-10-30T14:47:35.408Z,11.85
2022-10-30T14:50:10.862Z,15.13
2022-10-30T14:52:52.232Z,13.60
2022-10-30T14:55:40.421Z,19.42
2022-10-30T14:58:19.934Z,10.73
2022-10-30T15:00:46.675Z,8.90
2022-10-30T15:03:16.253Z,12.48
2022-10-30T15:05:49.009Z,10.50
2022-10-30T15:08:25.574Z,12.02
2022-10-30T15:11:17.829Z,9.45
2022-10-30T15:13:47.206Z,11.98
2022-10-30T15:16:16.333Z,14.10
2022-10-30T15:19:01.953Z,12.02
2022-10-30T15:21:33.053Z,12.70
2022-10-30T15:24:01.194Z,8.80
2022-10-30T15:26:35.664Z,9.98
2022-10-30T15:29:02.997Z,12.13
2022-10-30T15:31:29.993Z,9.77
2022-10-30T15:34:00.128Z,10.40
2022-10-30T15:36:31.189Z,10.48
2022-10-30T15:39:11.695Z,10.65
2022-10-30T15:41:53.941Z,13.13
2022-10-30T15:44:28.991Z,13.73
2022-10-30T15:46:57.024Z,9.75
2022-10-30T15:49:31.051Z,15.07
2022-10-30T15:51:58.518Z,10.63
2022-10-30T15:54:25.977Z,12.40
2022-10-30T15:57:31.416Z,9.15
2022-10-30T15:59:49.981Z,11.80
2022-10-30T16:02:22.562Z,12.23
2022-10-30T16:04:50.037Z,12.13
2022-10-30T16:07:25.075Z,11.40
2022-10-30T16:10:01.059Z,11.63
2022-10-30T16:12:29.753Z,10.15
2022-10-30T16:14:57.459Z,11.88
2022-10-30T16:17:25.497Z,12.40
2022-10-30T16:19:54.460Z,12.23
2022-10-30T16:22:27.329Z,16.55
2022-10-30T16:24:56.153Z,9.70
2022-10-30T16:27:24.513Z,13.82
2022-10-30T16:29:53.902Z,11.13
2022-10-30T16:32:22.797Z,10.10
2022-10-30T16:34:50.653Z,12.38
2022-10-30T16:37:43.963Z,10.60
2022-10-30T16:40:23.676Z,8.75
2022-10-30T16:43:01.433Z,9.93
2022-10-30T16:45:28.913Z,9.85
2022-10-30T16:48:08.355Z,9.50
2022-10-30T16:50:37.272Z,12.48
2022-10-30T16:53:11.412Z,9.15
2022-10-30T16:58:05.420Z,9.80
2022-10-30T17:00:36.194Z,11.68
2022-10-30T17:03:08.411Z,8.48
2022-10-30T17:05:37.111Z,9.02
2022-10-30T17:08:05.011Z,13.77
2022-10-30T17:10:36.939Z,12.57
2022-10-30T17:13:43.916Z,15.07
2022-10-30T17:16:31.313Z,10.98
2022-10-30T17:19:21.957Z,10.38
2022-10-30T17:21:51.313Z,11.75
2022-10-30T17:24:31.211Z,8.65
2022-10-30T17:27:00.357Z,11.30
2022-10-30T17:29:42.167Z,8.98
2022-10-30T17:32:28.797Z,9.23
2022-10-30T17:35:06.449Z,11.15
2022-10-30T17:37:33.123Z,10.48
2022-10-30T17:40:02.528Z,10.60
2022-10-30T17:42:29.134Z,13.73
2022-10-30T17:44:55.778Z,13.57
2022-10-30T17:47:23.731Z,12.02
2022-10-30T17:49:50.445Z,10.27
2022-10-30T17:52:19.480Z,12.40
2022-10-30T17:54:46.088Z,11.05
2022-10-30T17:57:14.875Z,11.63
2022-10-30T17:59:42.836Z,11.10
2022-10-30T18:02:15.615Z,11.52
2022-10-30T18:04:45.439Z,14.02
2022-10-30T18:07:12.614Z,11.85
2022-10-30T18:09:39.987Z,11.55
2022-10-30T18:12:07.875Z,10.25
2022-10-30T18:14:34.557Z,11.50
2022-10-30T18:17:01.344Z,10.43
2022-10-30T18:19:28.080Z,9.13
2022-10-30T18:21:57.593Z,8.95
2022-10-30T18:24:24.184Z,11.70
2022-10-30T18:26:50.845Z,9.25
2022-10-30T18:29:17.509Z,10.95
2022-10-30T18:31:44.367Z,11.18
2022-10-30T18:34:23.049Z,13.50
2022-10-30T18:36:50.234Z,10.82
2022-10-30T18:39:16.887Z,14.13
2022-10-30T18:41:45.088Z,13.40
2022-10-30T18:44:16.358Z,11.65
2022-10-30T18:46:43.745Z,11.18
2022-10-30T18:49:10.816Z,11.68
2022-10-30T18:51:37.993Z,12.73
2022-10-30T18:54:23.798Z,11.68
2022-10-30T18:56:50.363Z,8.80
2022-10-30T18:59:17.212Z,12.50
2022-10-30T19:01:43.943Z,11.65
2022-10-30T19:04:10.807Z,8.88
2022-10-30T19:06:38.935Z,8.50
2022-10-30T19:09:05.901Z,9.40
2022-10-30T19:11:32.997Z,11.32
2022-10-30T19:13:59.749Z,8.40
2022-10-30T19:16:26.791Z,11.18
2022-10-30T19:18:53.849Z,12.45
2022-10-30T19:21:23.259Z,10.05
2022-10-30T19:23:49.997Z,9.20
2022-10-30T19:26:17.487Z,11.73
2022-10-30T19:28:45.260Z,11.35
2022-10-30T19:31:17.277Z,9.80
2022-10-30T19:33:44.605Z,9.82
2022-10-30T19:36:36.029Z,11.32
2022-10-30T19:39:08.850Z,13.50
2022-10-30T19:41:36.848Z,11.77
2022-10-30T19:44:04.083Z,11.75
2022-10-30T19:46:30.770Z,12.15
2022-10-30T19:48:59.036Z,10.38
2022-10-30T19:51:27.389Z,11.00
2022-10-30T19:53:54.220Z,10.60
2022-10-30T19:56:21.420Z,11.45
2022-10-30T19:58:48.450Z,11.70
2022-10-30T20:01:15.892Z,10.68
2022-10-30T20:03:43.432Z,11.95
2022-10-30T20:06:13.008Z,12.82
2022-10-30T20:08:40.498Z,13.70
2022-10-30T20:11:07.686Z,16.38
2022-10-30T20:13:34.439Z,12.63
2022-10-30T20:16:04.996Z,11.95
2022-10-30T20:18:33.935Z,11.43
2022-10-30T20:21:03.229Z,12.05
2022-10-30T20:23:29.889Z,11.73
2022-10-30T20:26:01.858Z,13.27
2022-10-30T20:28:32.008Z,10.35
2022-10-30T20:30:58.760Z,10.88
2022-10-30T20:33:25.881Z,12.80
2022-10-30T20:35:54.805Z,12.32
2022-10-30T20:38:26.497Z,10.90
2022-10-30T20:40:53.812Z,11.18
2022-10-30T20:43:23.585Z,13.15
2022-10-30T20:45:50.314Z,11.27
2022-10-30T20:48:17.080Z,12.23
2022-10-30T20:50:47.702Z,12.20
2022-10-30T20:53:17.181Z,11.70
2022-10-30T20:55:44.505Z,12.65
2022-10-30T20:58:11.224Z,12.85
2022-10-30T21:00:37.962Z,12.38
2022-10-30T21:03:05.658Z,13.35
2022-10-30T21:05:49.087Z,13.68
2022-10-30T21:08:15.987Z,10.98
2022-10-30T21:10:43.081Z,12.98
2022-10-30T21:13:11.180Z,14.07
2022-10-30T21:15:42.940Z,11.15
2022-10-30T21:18:12.243Z,12.60
2022-10-30T21:20:40.945Z,10.95
2022-10-30T21:23:08.398Z,11.55
2022-10-30T21:25:35.827Z,12.90
2022-10-30T21:28:02.722Z,16.55
2022-10-30T21:30:29.711Z,15.20
2022-10-30T21:32:57.300Z,9.75
2022-10-30T21:35:24.113Z,12.57
2022-10-30T21:37:51.108Z,12.90
2022-10-30T21:40:20.213Z,13.23
2022-10-30T21:42:51.119Z,11.82
2022-10-30T21:45:18.277Z,12.30
2022-10-30T21:47:48.186Z,13.05
2022-10-30T21:50:14.844Z,15.00
2022-10-30T21:52:41.488Z,13.95
2022-10-30T21:55:08.567Z,11.52
2022-10-30T21:57:36.265Z,13.07
2022-10-30T22:00:06.292Z,11.90
2022-10-30T22:02:34.463Z,12.43
2022-10-30T22:05:01.329Z,10.73
2022-10-30T22:07:27.999Z,14.15
2022-10-30T22:09:54.833Z,13.27
2022-10-30T22:12:24.745Z,15.98
2022-10-30T22:14:51.390Z,12.75
2022-10-30T22:17:20.566Z,13.15
2022-10-30T22:19:47.433Z,12.57
2022-10-30T22:22:14.374Z,16.60
2022-10-30T22:24:41.022Z,11.00
2022-10-30T22:27:07.804Z,14.77
2022-10-30T22:29:34.699Z,11.02
2022-10-30T22:32:05.075Z,10.48
2022-10-30T22:34:31.680Z,11.18
2022-10-30T22:37:01.786Z,12.32
2022-10-30T22:39:28.569Z,12.23
2022-10-30T22:41:55.742Z,12.80
2022-10-30T22:44:24.164Z,13.07
2022-10-30T22:46:51.851Z,11.55
2022-10-30T22:49:18.464Z,12.47
2022-10-30T22:51:45.107Z,12.68
2022-10-30T22:54:14.623Z,13.05
2022-10-30T22:56:41.452Z,11.40
2022-10-30T22:59:11.640Z,9.97
2022-10-30T23:01:44.336Z,11.10
2022-10-30T23:04:12.783Z,12.13
2022-10-30T23:06:39.553Z,12.90
2022-10-30T23:09:11.071Z,12.98
2022-10-30T23:11:38.154Z,13.90
2022-10-30T23:14:05.257Z,13.80
2022-10-30T23:16:32.464Z,11.05
2022-10-30T23:19:00.650Z,12.47
2022-10-30T23:21:30.055Z,15.85
2022-10-30T23:23:57.429Z,12.63
2022-10-30T23:26:26.395Z,11.13
2022-10-30T23:28:54.862Z,12.30
2022-10-30T23:31:34.740Z,12.07
2022-10-30T23:34:05.263Z,10.30
2022-10-30T23:36:33.915Z,11.33
2022-10-30T23:39:02.717Z,10.37
2022-10-30T23:41:31.607Z,11.73
2022-10-30T23:44:00.941Z,13.87
2022-10-30T23:46:28.298Z,11.82
2022-10-30T23:48:55.324Z,13.70
2022-10-30T23:51:22.230Z,12.97
2022-10-30T23:53:48.998Z,10.77
2022-10-30T23:56:16.565Z,11.87
2022-10-30T23:58:48.261Z,13.53
